sensor_id;sensor_type;location;lat;lon;timestamp;pressure;altitude;pressure_sealevel;temperature;humidity
62789;BME280;66401;42.016;21.454;2023-05-15T00:01:35;98285.22;;;13.08;81.68
62789;BME280;66401;42.016;21.454;2023-05-15T00:04:01;98290.81;;;13.18;80.03
62789;BME280;66401;42.016;21.454;2023-05-15T00:06:26;98274.31;;;13.17;79.04
62789;BME280;66401;42.016;21.454;2023-05-15T00:08:52;98279.38;;;13.12;79.14
62789;BME280;66401;42.016;21.454;2023-05-15T00:11:18;98290.66;;;13.13;79.02
62789;BME280;66401;42.016;21.454;2023-05-15T00:13:43;98286.81;;;13.09;78.73
62789;BME280;66401;42.016;21.454;2023-05-15T00:16:09;98296.69;;;13.07;78.71
62789;BME280;66401;42.016;21.454;2023-05-15T00:18:34;98282.84;;;12.93;77.72
62789;BME280;66401;42.016;21.454;2023-05-15T00:21:00;98298.13;;;13.03;79.04
62789;BME280;66401;42.016;21.454;2023-05-15T00:23:25;98298.53;;;12.93;79.17
62789;BME280;66401;42.016;21.454;2023-05-15T00:25:51;98296.91;;;12.92;79.42
62789;BME280;66401;42.016;21.454;2023-05-15T00:28:16;98281.28;;;12.85;80.45
62789;BME280;66401;42.016;21.454;2023-05-15T00:30:42;98271.19;;;12.96;79.47
62789;BME280;66401;42.016;21.454;2023-05-15T00:33:07;98269.59;;;12.95;78.52
62789;BME280;66401;42.016;21.454;2023-05-15T00:35:36;98259.53;;;12.92;79.42
62789;BME280;66401;42.016;21.454;2023-05-15T00:38:01;98264.00;;;12.78;78.66
62789;BME280;66401;42.016;21.454;2023-05-15T00:40:28;98288.09;;;12.86;78.50
62789;BME280;66401;42.016;21.454;2023-05-15T00:42:54;98295.72;;;12.95;78.20
62789;BME280;66401;42.016;21.454;2023-05-15T00:45:21;98291.69;;;12.99;78.41
62789;BME280;66401;42.016;21.454;2023-05-15T00:47:49;98289.34;;;12.84;78.36
62789;BME280;66401;42.016;21.454;2023-05-15T00:50:15;98297.72;;;12.93;78.77
62789;BME280;66401;42.016;21.454;2023-05-15T00:52:42;98300.97;;;12.95;78.19
62789;BME280;66401;42.016;21.454;2023-05-15T00:55:07;98302.16;;;12.92;78.56
62789;BME280;66401;42.016;21.454;2023-05-15T00:57:33;98306.56;;;12.92;78.33
62789;BME280;66401;42.016;21.454;2023-05-15T01:00:00;98309.41;;;12.90;78.78
62789;BME280;66401;42.016;21.454;2023-05-15T01:02:26;98293.56;;;12.78;78.89
62789;BME280;66401;42.016;21.454;2023-05-15T01:04:52;98272.00;;;12.83;79.67
62789;BME280;66401;42.016;21.454;2023-05-15T01:07:17;98264.97;;;12.83;79.45
62789;BME280;66401;42.016;21.454;2023-05-15T01:09:44;98252.31;;;12.80;79.74
62789;BME280;66401;42.016;21.454;2023-05-15T01:12:13;98257.19;;;12.77;79.99
62789;BME280;66401;42.016;21.454;2023-05-15T01:14:39;98268.06;;;12.67;79.97
62789;BME280;66401;42.016;21.454;2023-05-15T01:17:05;98250.41;;;12.56;80.99
62789;BME280;66401;42.016;21.454;2023-05-15T01:19:30;98256.75;;;12.73;80.96
62789;BME280;66401;42.016;21.454;2023-05-15T01:24:52;98255.94;;;12.79;80.76
62789;BME280;66401;42.016;21.454;2023-05-15T01:30:10;98238.66;;;12.78;80.43
62789;BME280;66401;42.016;21.454;2023-05-15T01:32:47;98243.75;;;12.60;81.36
62789;BME280;66401;42.016;21.454;2023-05-15T01:41:00;98242.78;;;12.35;84.18
62789;BME280;66401;42.016;21.454;2023-05-15T01:43:28;98250.44;;;12.29;83.97
62789;BME280;66401;42.016;21.454;2023-05-15T01:45:57;98253.47;;;12.26;84.06
62789;BME280;66401;42.016;21.454;2023-05-15T01:48:24;98249.22;;;12.25;83.63
62789;BME280;66401;42.016;21.454;2023-05-15T01:50:53;98250.81;;;12.33;83.15
62789;BME280;66401;42.016;21.454;2023-05-15T01:53:21;98233.97;;;12.22;83.25
62789;BME280;66401;42.016;21.454;2023-05-15T01:55:47;98226.72;;;12.31;83.49
62789;BME280;66401;42.016;21.454;2023-05-15T01:58:14;98218.50;;;12.21;84.09
62789;BME280;66401;42.016;21.454;2023-05-15T02:00:40;98215.47;;;12.30;83.84
62789;BME280;66401;42.016;21.454;2023-05-15T02:03:07;98202.63;;;12.29;84.47
62789;BME280;66401;42.016;21.454;2023-05-15T02:05:34;98198.19;;;12.29;82.39
62789;BME280;66401;42.016;21.454;2023-05-15T02:08:01;98205.81;;;12.38;82.51
62789;BME280;66401;42.016;21.454;2023-05-15T02:10:28;98205.41;;;12.34;82.68
62789;BME280;66401;42.016;21.454;2023-05-15T02:12:55;98206.81;;;12.43;83.07
62789;BME280;66401;42.016;21.454;2023-05-15T02:15:20;98185.25;;;12.54;82.03
62789;BME280;66401;42.016;21.454;2023-05-15T02:17:47;98182.63;;;12.61;82.36
62789;BME280;66401;42.016;21.454;2023-05-15T02:20:12;98182.44;;;12.63;82.62
62789;BME280;66401;42.016;21.454;2023-05-15T02:22:38;98192.88;;;12.63;84.11
62789;BME280;66401;42.016;21.454;2023-05-15T02:25:04;98194.53;;;12.57;84.71
62789;BME280;66401;42.016;21.454;2023-05-15T02:27:41;98194.47;;;12.70;83.45
62789;BME280;66401;42.016;21.454;2023-05-15T02:30:36;98188.88;;;12.60;85.73
62789;BME280;66401;42.016;21.454;2023-05-15T02:36:29;98173.13;;;12.80;84.35
62789;BME280;66401;42.016;21.454;2023-05-15T02:38:58;98171.50;;;12.85;85.44
62789;BME280;66401;42.016;21.454;2023-05-15T02:41:24;98181.94;;;12.85;85.29
62789;BME280;66401;42.016;21.454;2023-05-15T02:43:50;98195.25;;;12.84;84.89
62789;BME280;66401;42.016;21.454;2023-05-15T02:46:18;98190.81;;;12.78;84.09
62789;BME280;66401;42.016;21.454;2023-05-15T02:48:45;98190.38;;;12.87;85.35
62789;BME280;66401;42.016;21.454;2023-05-15T02:51:11;98190.81;;;12.84;83.87
62789;BME280;66401;42.016;21.454;2023-05-15T02:53:41;98195.41;;;12.82;84.19
62789;BME280;66401;42.016;21.454;2023-05-15T02:56:07;98183.19;;;12.76;85.25
62789;BME280;66401;42.016;21.454;2023-05-15T02:58:34;98187.78;;;12.87;83.39
62789;BME280;66401;42.016;21.454;2023-05-15T03:00:59;98201.50;;;12.70;85.11
62789;BME280;66401;42.016;21.454;2023-05-15T03:03:25;98192.50;;;12.59;84.16
62789;BME280;66401;42.016;21.454;2023-05-15T03:05:50;98194.25;;;12.78;84.56
62789;BME280;66401;42.016;21.454;2023-05-15T03:08:17;98183.78;;;12.85;84.32
62789;BME280;66401;42.016;21.454;2023-05-15T03:10:43;98179.56;;;12.84;85.66
62789;BME280;66401;42.016;21.454;2023-05-15T03:13:08;98168.47;;;12.82;84.71
62789;BME280;66401;42.016;21.454;2023-05-15T03:15:34;98148.19;;;12.84;85.76
62789;BME280;66401;42.016;21.454;2023-05-15T03:17:59;98151.41;;;12.79;86.56
62789;BME280;66401;42.016;21.454;2023-05-15T03:20:25;98142.13;;;12.83;85.55
62789;BME280;66401;42.016;21.454;2023-05-15T03:22:50;98153.00;;;12.80;86.73
62789;BME280;66401;42.016;21.454;2023-05-15T03:25:16;98146.16;;;12.86;85.26
62789;BME280;66401;42.016;21.454;2023-05-15T03:27:41;98142.66;;;12.60;87.10
62789;BME280;66401;42.016;21.454;2023-05-15T03:30:07;98147.72;;;12.49;87.61
62789;BME280;66401;42.016;21.454;2023-05-15T03:32:33;98152.75;;;12.50;88.72
62789;BME280;66401;42.016;21.454;2023-05-15T03:34:58;98163.09;;;12.70;86.68
62789;BME280;66401;42.016;21.454;2023-05-15T03:37:23;98166.94;;;12.74;86.55
62789;BME280;66401;42.016;21.454;2023-05-15T03:39:49;98156.28;;;12.69;90.26
62789;BME280;66401;42.016;21.454;2023-05-15T03:42:15;98159.13;;;12.61;88.83
62789;BME280;66401;42.016;21.454;2023-05-15T03:44:46;98166.53;;;12.71;87.45
62789;BME280;66401;42.016;21.454;2023-05-15T03:47:12;98172.75;;;12.76;88.08
62789;BME280;66401;42.016;21.454;2023-05-15T03:49:37;98188.81;;;12.80;88.44
62789;BME280;66401;42.016;21.454;2023-05-15T03:52:03;98182.28;;;12.44;89.32
62789;BME280;66401;42.016;21.454;2023-05-15T03:54:29;98188.06;;;12.66;88.33
62789;BME280;66401;42.016;21.454;2023-05-15T03:56:55;98179.38;;;12.72;88.40
62789;BME280;66401;42.016;21.454;2023-05-15T03:59:20;98167.09;;;12.79;86.58
62789;BME280;66401;42.016;21.454;2023-05-15T04:01:46;98163.03;;;12.83;87.36
62789;BME280;66401;42.016;21.454;2023-05-15T04:04:11;98172.09;;;12.81;88.76
62789;BME280;66401;42.016;21.454;2023-05-15T04:06:37;98166.28;;;12.85;87.55
62789;BME280;66401;42.016;21.454;2023-05-15T04:09:02;98152.34;;;12.92;87.93
62789;BME280;66401;42.016;21.454;2023-05-15T04:11:28;98166.66;;;12.89;88.93
62789;BME280;66401;42.016;21.454;2023-05-15T04:13:53;98165.56;;;12.58;89.89
62789;BME280;66401;42.016;21.454;2023-05-15T04:16:19;98167.97;;;12.60;89.65
62789;BME280;66401;42.016;21.454;2023-05-15T04:18:44;98174.94;;;12.79;89.68
62789;BME280;66401;42.016;21.454;2023-05-15T04:21:10;98185.31;;;12.93;88.66
62789;BME280;66401;42.016;21.454;2023-05-15T04:23:35;98164.34;;;12.68;88.97
62789;BME280;66401;42.016;21.454;2023-05-15T04:26:00;98167.16;;;12.66;89.27
62789;BME280;66401;42.016;21.454;2023-05-15T04:28:26;98176.75;;;12.72;89.81
62789;BME280;66401;42.016;21.454;2023-05-15T04:30:52;98172.97;;;12.68;89.38
62789;BME280;66401;42.016;21.454;2023-05-15T04:33:17;98164.31;;;12.74;89.53
62789;BME280;66401;42.016;21.454;2023-05-15T04:35:43;98162.66;;;12.86;87.37
62789;BME280;66401;42.016;21.454;2023-05-15T04:38:08;98155.53;;;13.00;87.55
62789;BME280;66401;42.016;21.454;2023-05-15T04:40:34;98161.25;;;12.84;86.15
62789;BME280;66401;42.016;21.454;2023-05-15T04:42:59;98176.03;;;12.58;86.88
62789;BME280;66401;42.016;21.454;2023-05-15T04:45:25;98157.34;;;12.55;85.63
62789;BME280;66401;42.016;21.454;2023-05-15T04:47:50;98170.34;;;12.75;85.64
62789;BME280;66401;42.016;21.454;2023-05-15T04:50:15;98170.28;;;12.81;85.33
62789;BME280;66401;42.016;21.454;2023-05-15T04:52:41;98162.75;;;12.60;87.51
62789;BME280;66401;42.016;21.454;2023-05-15T04:55:08;98169.78;;;12.66;85.97
62789;BME280;66401;42.016;21.454;2023-05-15T04:57:34;98166.16;;;12.67;85.07
62789;BME280;66401;42.016;21.454;2023-05-15T05:00:00;98167.88;;;12.86;85.37
62789;BME280;66401;42.016;21.454;2023-05-15T05:02:25;98157.28;;;13.13;84.00
62789;BME280;66401;42.016;21.454;2023-05-15T05:04:51;98155.94;;;13.35;82.99
62789;BME280;66401;42.016;21.454;2023-05-15T05:07:16;98156.06;;;13.47;82.67
62789;BME280;66401;42.016;21.454;2023-05-15T05:09:42;98153.94;;;13.31;81.47
62789;BME280;66401;42.016;21.454;2023-05-15T05:12:08;98183.13;;;13.34;82.29
62789;BME280;66401;42.016;21.454;2023-05-15T05:14:34;98181.69;;;13.38;82.15
62789;BME280;66401;42.016;21.454;2023-05-15T05:17:00;98180.75;;;13.58;81.95
62789;BME280;66401;42.016;21.454;2023-05-15T05:19:25;98187.56;;;13.59;82.08
62789;BME280;66401;42.016;21.454;2023-05-15T05:21:52;98196.44;;;13.58;82.33
62789;BME280;66401;42.016;21.454;2023-05-15T05:24:18;98185.78;;;13.84;80.88
62789;BME280;66401;42.016;21.454;2023-05-15T05:26:43;98174.75;;;14.00;79.25
62789;BME280;66401;42.016;21.454;2023-05-15T05:29:12;98167.00;;;14.12;79.50
62789;BME280;66401;42.016;21.454;2023-05-15T05:31:37;98179.13;;;14.07;79.46
62789;BME280;66401;42.016;21.454;2023-05-15T05:34:03;98183.94;;;14.28;79.26
62789;BME280;66401;42.016;21.454;2023-05-15T05:36:29;98169.84;;;14.47;78.03
62789;BME280;66401;42.016;21.454;2023-05-15T05:38:55;98161.72;;;14.55;77.08
62789;BME280;66401;42.016;21.454;2023-05-15T05:41:20;98174.00;;;14.55;76.46
62789;BME280;66401;42.016;21.454;2023-05-15T05:43:46;98161.69;;;14.37;78.19
62789;BME280;66401;42.016;21.454;2023-05-15T05:46:11;98172.28;;;14.49;79.28
62789;BME280;66401;42.016;21.454;2023-05-15T05:48:37;98169.28;;;14.64;78.62
62789;BME280;66401;42.016;21.454;2023-05-15T05:51:03;98165.41;;;14.66;78.26
62789;BME280;66401;42.016;21.454;2023-05-15T05:53:28;98174.22;;;14.72;77.75
62789;BME280;66401;42.016;21.454;2023-05-15T05:55:54;98177.44;;;14.74;78.27
62789;BME280;66401;42.016;21.454;2023-05-15T05:58:19;98175.09;;;14.66;77.26
62789;BME280;66401;42.016;21.454;2023-05-15T06:00:45;98162.78;;;14.29;76.47
62789;BME280;66401;42.016;21.454;2023-05-15T06:03:11;98179.19;;;14.00;79.33
62789;BME280;66401;42.016;21.454;2023-05-15T06:05:37;98186.34;;;14.11;80.51
62789;BME280;66401;42.016;21.454;2023-05-15T06:08:02;98186.88;;;14.38;80.44
62789;BME280;66401;42.016;21.454;2023-05-15T06:10:28;98173.88;;;14.50;78.82
62789;BME280;66401;42.016;21.454;2023-05-15T06:12:54;98168.47;;;14.63;77.85
62789;BME280;66401;42.016;21.454;2023-05-15T06:15:20;98170.81;;;14.71;76.56
62789;BME280;66401;42.016;21.454;2023-05-15T06:17:46;98175.81;;;14.91;77.59
62789;BME280;66401;42.016;21.454;2023-05-15T06:20:11;98169.75;;;15.21;75.99
62789;BME280;66401;42.016;21.454;2023-05-15T06:22:37;98174.28;;;15.13;73.28
62789;BME280;66401;42.016;21.454;2023-05-15T06:25:04;98170.63;;;15.14;73.47
62789;BME280;66401;42.016;21.454;2023-05-15T06:27:30;98188.25;;;15.26;72.71
62789;BME280;66401;42.016;21.454;2023-05-15T06:29:56;98172.25;;;15.15;77.35
62789;BME280;66401;42.016;21.454;2023-05-15T06:32:22;98180.31;;;15.44;76.37
62789;BME280;66401;42.016;21.454;2023-05-15T06:34:47;98169.19;;;15.60;77.15
62789;BME280;66401;42.016;21.454;2023-05-15T06:37:13;98135.06;;;15.60;75.19
62789;BME280;66401;42.016;21.454;2023-05-15T06:39:38;98130.28;;;15.69;76.87
62789;BME280;66401;42.016;21.454;2023-05-15T06:42:04;98139.75;;;15.82;73.85
62789;BME280;66401;42.016;21.454;2023-05-15T06:44:30;98118.72;;;15.58;75.91
62789;BME280;66401;42.016;21.454;2023-05-15T06:46:56;98116.34;;;15.68;69.62
62789;BME280;66401;42.016;21.454;2023-05-15T06:49:23;98111.22;;;15.73;68.19
62789;BME280;66401;42.016;21.454;2023-05-15T06:51:48;98128.00;;;15.61;68.74
62789;BME280;66401;42.016;21.454;2023-05-15T06:54:14;98142.56;;;15.45;70.64
62789;BME280;66401;42.016;21.454;2023-05-15T06:56:39;98148.31;;;15.24;67.87
62789;BME280;66401;42.016;21.454;2023-05-15T06:59:05;98131.53;;;15.25;68.16
62789;BME280;66401;42.016;21.454;2023-05-15T07:01:30;98120.88;;;14.96;68.85
62789;BME280;66401;42.016;21.454;2023-05-15T07:03:56;98123.09;;;14.81;69.00
62789;BME280;66401;42.016;21.454;2023-05-15T07:06:21;98119.00;;;14.85;70.84
62789;BME280;66401;42.016;21.454;2023-05-15T07:08:47;98130.00;;;15.05;69.98
62789;BME280;66401;42.016;21.454;2023-05-15T07:11:13;98123.31;;;15.09;69.81
62789;BME280;66401;42.016;21.454;2023-05-15T07:13:39;98119.44;;;14.82;69.83
62789;BME280;66401;42.016;21.454;2023-05-15T07:16:04;98138.00;;;14.50;72.50
62789;BME280;66401;42.016;21.454;2023-05-15T07:18:30;98147.25;;;14.83;71.96
62789;BME280;66401;42.016;21.454;2023-05-15T07:20:55;98142.13;;;15.06;73.97
62789;BME280;66401;42.016;21.454;2023-05-15T07:23:21;98143.63;;;14.66;74.77
62789;BME280;66401;42.016;21.454;2023-05-15T07:25:47;98140.59;;;14.69;74.48
62789;BME280;66401;42.016;21.454;2023-05-15T07:28:12;98130.16;;;15.10;74.16
62789;BME280;66401;42.016;21.454;2023-05-15T07:30:38;98117.91;;;15.58;73.87
62789;BME280;66401;42.016;21.454;2023-05-15T07:33:03;98119.78;;;16.04;70.90
62789;BME280;66401;42.016;21.454;2023-05-15T07:35:29;98127.66;;;16.56;70.69
62789;BME280;66401;42.016;21.454;2023-05-15T07:37:54;98107.19;;;16.58;65.63
62789;BME280;66401;42.016;21.454;2023-05-15T07:40:20;98115.91;;;16.47;66.13
62789;BME280;66401;42.016;21.454;2023-05-15T07:42:45;98111.06;;;16.96;66.12
62789;BME280;66401;42.016;21.454;2023-05-15T07:45:29;98122.94;;;16.81;65.12
62789;BME280;66401;42.016;21.454;2023-05-15T07:47:55;98107.28;;;17.03;63.80
62789;BME280;66401;42.016;21.454;2023-05-15T07:50:21;98119.25;;;16.82;64.11
62789;BME280;66401;42.016;21.454;2023-05-15T07:52:46;98115.03;;;17.27;65.08
62789;BME280;66401;42.016;21.454;2023-05-15T07:55:12;98118.88;;;17.19;64.16
62789;BME280;66401;42.016;21.454;2023-05-15T07:57:38;98124.72;;;17.38;64.24
62789;BME280;66401;42.016;21.454;2023-05-15T08:00:06;98116.56;;;16.94;64.52
62789;BME280;66401;42.016;21.454;2023-05-15T08:02:35;98114.69;;;16.38;65.45
62789;BME280;66401;42.016;21.454;2023-05-15T08:05:01;98134.03;;;16.08;65.31
62789;BME280;66401;42.016;21.454;2023-05-15T08:07:30;98124.78;;;16.69;64.01
62789;BME280;66401;42.016;21.454;2023-05-15T08:09:56;98123.19;;;16.68;64.08
62789;BME280;66401;42.016;21.454;2023-05-15T08:12:22;98133.94;;;17.24;64.42
62789;BME280;66401;42.016;21.454;2023-05-15T08:14:53;98132.53;;;17.50;64.10
62789;BME280;66401;42.016;21.454;2023-05-15T08:17:19;98124.13;;;17.36;63.92
62789;BME280;66401;42.016;21.454;2023-05-15T08:19:44;98107.63;;;17.74;63.09
62789;BME280;66401;42.016;21.454;2023-05-15T08:22:10;98121.13;;;17.78;62.98
62789;BME280;66401;42.016;21.454;2023-05-15T08:24:36;98112.91;;;18.13;62.42
62789;BME280;66401;42.016;21.454;2023-05-15T08:27:04;98123.25;;;18.36;61.31
62789;BME280;66401;42.016;21.454;2023-05-15T08:29:30;98120.81;;;17.57;63.30
62789;BME280;66401;42.016;21.454;2023-05-15T08:31:56;98105.00;;;17.57;63.52
62789;BME280;66401;42.016;21.454;2023-05-15T08:34:22;98119.31;;;18.17;63.40
62789;BME280;66401;42.016;21.454;2023-05-15T08:36:47;98128.19;;;18.54;63.42
62789;BME280;66401;42.016;21.454;2023-05-15T08:39:13;98124.03;;;18.58;61.65
62789;BME280;66401;42.016;21.454;2023-05-15T08:42:07;98124.09;;;18.64;61.34
62789;BME280;66401;42.016;21.454;2023-05-15T08:44:32;98130.72;;;18.44;60.01
62789;BME280;66401;42.016;21.454;2023-05-15T08:46:59;98144.13;;;18.21;62.08
62789;BME280;66401;42.016;21.454;2023-05-15T08:52:11;98137.13;;;18.10;61.08
62789;BME280;66401;42.016;21.454;2023-05-15T08:54:38;98113.06;;;17.51;63.66
62789;BME280;66401;42.016;21.454;2023-05-15T08:57:05;98119.34;;;18.00;63.99
62789;BME280;66401;42.016;21.454;2023-05-15T08:59:31;98114.41;;;18.25;61.57
62789;BME280;66401;42.016;21.454;2023-05-15T09:01:57;98104.44;;;17.72;62.96
62789;BME280;66401;42.016;21.454;2023-05-15T09:04:22;98119.59;;;17.98;63.80
62789;BME280;66401;42.016;21.454;2023-05-15T09:06:48;98125.53;;;18.11;63.99
62789;BME280;66401;42.016;21.454;2023-05-15T09:09:14;98129.97;;;18.27;63.73
62789;BME280;66401;42.016;21.454;2023-05-15T09:11:43;98133.44;;;18.11;63.73
62789;BME280;66401;42.016;21.454;2023-05-15T09:14:09;98124.81;;;18.37;62.42
62789;BME280;66401;42.016;21.454;2023-05-15T09:16:35;98107.47;;;18.19;64.89
62789;BME280;66401;42.016;21.454;2023-05-15T09:19:00;98100.97;;;18.71;61.66
62789;BME280;66401;42.016;21.454;2023-05-15T09:21:28;98100.97;;;18.98;62.16
62789;BME280;66401;42.016;21.454;2023-05-15T09:24:05;98120.56;;;17.59;63.58
62789;BME280;66401;42.016;21.454;2023-05-15T09:26:40;98112.66;;;17.42;63.58
62789;BME280;66401;42.016;21.454;2023-05-15T09:29:06;98095.03;;;16.97;65.81
62789;BME280;66401;42.016;21.454;2023-05-15T09:31:31;98103.91;;;17.70;64.54
62789;BME280;66401;42.016;21.454;2023-05-15T09:33:58;98086.78;;;18.33;63.41
62789;BME280;66401;42.016;21.454;2023-05-15T09:36:26;98086.69;;;18.67;62.46
62789;BME280;66401;42.016;21.454;2023-05-15T09:38:57;98085.41;;;18.96;61.73
62789;BME280;66401;42.016;21.454;2023-05-15T09:41:30;98054.84;;;19.05;59.99
62789;BME280;66401;42.016;21.454;2023-05-15T09:43:55;98065.38;;;18.51;61.26
62789;BME280;66401;42.016;21.454;2023-05-15T09:46:23;98070.19;;;19.08;60.52
62789;BME280;66401;42.016;21.454;2023-05-15T09:48:53;98072.59;;;18.34;59.25
62789;BME280;66401;42.016;21.454;2023-05-15T09:51:19;98063.81;;;18.72;59.63
62789;BME280;66401;42.016;21.454;2023-05-15T09:53:51;98063.13;;;18.87;58.78
62789;BME280;66401;42.016;21.454;2023-05-15T09:56:17;98063.84;;;19.09;57.33
62789;BME280;66401;42.016;21.454;2023-05-15T09:58:56;98061.94;;;18.24;60.33
62789;BME280;66401;42.016;21.454;2023-05-15T10:01:23;98068.25;;;18.72;59.44
62789;BME280;66401;42.016;21.454;2023-05-15T10:03:57;98066.97;;;19.01;57.14
62789;BME280;66401;42.016;21.454;2023-05-15T10:06:23;98067.44;;;18.44;59.60
62789;BME280;66401;42.016;21.454;2023-05-15T10:08:52;98077.28;;;18.32;59.21
62789;BME280;66401;42.016;21.454;2023-05-15T10:11:19;98073.00;;;18.04;60.41
62789;BME280;66401;42.016;21.454;2023-05-15T10:13:46;98069.28;;;18.66;59.73
62789;BME280;66401;42.016;21.454;2023-05-15T10:16:12;98063.75;;;18.94;58.74
62789;BME280;66401;42.016;21.454;2023-05-15T10:18:39;98060.91;;;19.38;57.58
62789;BME280;66401;42.016;21.454;2023-05-15T10:21:07;98068.22;;;18.45;58.65
62789;BME280;66401;42.016;21.454;2023-05-15T10:23:35;98065.41;;;17.86;58.57
62789;BME280;66401;42.016;21.454;2023-05-15T10:26:06;98074.50;;;17.78;61.25
62789;BME280;66401;42.016;21.454;2023-05-15T10:28:34;98074.16;;;17.91;60.44
62789;BME280;66401;42.016;21.454;2023-05-15T10:31:00;98074.38;;;18.28;59.43
62789;BME280;66401;42.016;21.454;2023-05-15T10:33:28;98064.59;;;18.29;59.45
62789;BME280;66401;42.016;21.454;2023-05-15T10:35:55;98058.59;;;18.55;58.60
62789;BME280;66401;42.016;21.454;2023-05-15T10:38:21;98048.41;;;18.42;59.57
62789;BME280;66401;42.016;21.454;2023-05-15T10:40:47;98053.06;;;18.57;59.62
62789;BME280;66401;42.016;21.454;2023-05-15T10:43:13;98043.59;;;18.34;58.88
62789;BME280;66401;42.016;21.454;2023-05-15T10:45:40;98038.97;;;18.02;57.41
62789;BME280;66401;42.016;21.454;2023-05-15T10:48:06;98020.00;;;18.00;58.89
62789;BME280;66401;42.016;21.454;2023-05-15T10:50:37;98018.44;;;18.05;60.71
62789;BME280;66401;42.016;21.454;2023-05-15T10:53:02;98016.28;;;18.45;60.17
62789;BME280;66401;42.016;21.454;2023-05-15T10:55:29;98025.03;;;18.73;57.95
62789;BME280;66401;42.016;21.454;2023-05-15T10:57:55;98018.38;;;18.70;57.44
62789;BME280;66401;42.016;21.454;2023-05-15T11:02:46;98022.91;;;17.82;57.31
62789;BME280;66401;42.016;21.454;2023-05-15T11:05:12;98015.47;;;18.18;61.22
62789;BME280;66401;42.016;21.454;2023-05-15T11:07:38;98000.91;;;18.37;59.34
62789;BME280;66401;42.016;21.454;2023-05-15T11:12:57;98009.69;;;17.77;56.49
62789;BME280;66401;42.016;21.454;2023-05-15T11:15:23;98011.78;;;18.19;56.90
62789;BME280;66401;42.016;21.454;2023-05-15T11:18:05;98023.72;;;18.05;55.42
62789;BME280;66401;42.016;21.454;2023-05-15T11:20:42;97987.69;;;17.66;56.53
62789;BME280;66401;42.016;21.454;2023-05-15T11:23:26;97989.28;;;17.89;56.75
62789;BME280;66401;42.016;21.454;2023-05-15T11:25:53;97991.78;;;18.23;56.40
62789;BME280;66401;42.016;21.454;2023-05-15T11:28:21;97985.44;;;18.46;56.16
62789;BME280;66401;42.016;21.454;2023-05-15T11:30:49;97971.28;;;18.84;55.79
62789;BME280;66401;42.016;21.454;2023-05-15T11:33:15;97978.81;;;18.43;53.58
62789;BME280;66401;42.016;21.454;2023-05-15T11:35:43;97953.47;;;18.69;54.74
62789;BME280;66401;42.016;21.454;2023-05-15T11:38:16;97961.47;;;19.11;55.21
62789;BME280;66401;42.016;21.454;2023-05-15T11:40:52;97969.41;;;19.16;54.54
62789;BME280;66401;42.016;21.454;2023-05-15T11:43:24;97962.34;;;19.27;54.58
62789;BME280;66401;42.016;21.454;2023-05-15T11:45:50;97975.28;;;19.29;54.65
62789;BME280;66401;42.016;21.454;2023-05-15T11:48:18;97974.13;;;18.50;55.15
62789;BME280;66401;42.016;21.454;2023-05-15T11:50:44;97956.97;;;18.21;57.20
62789;BME280;66401;42.016;21.454;2023-05-15T11:53:10;97951.50;;;18.27;56.47
62789;BME280;66401;42.016;21.454;2023-05-15T11:55:37;97937.53;;;18.86;56.82
62789;BME280;66401;42.016;21.454;2023-05-15T11:58:04;97931.06;;;18.72;55.46
62789;BME280;66401;42.016;21.454;2023-05-15T12:00:30;97923.44;;;18.43;56.38
62789;BME280;66401;42.016;21.454;2023-05-15T12:02:56;97920.53;;;19.09;55.92
62789;BME280;66401;42.016;21.454;2023-05-15T12:05:22;97905.88;;;19.33;54.34
62789;BME280;66401;42.016;21.454;2023-05-15T12:07:47;97910.25;;;19.60;53.92
62789;BME280;66401;42.016;21.454;2023-05-15T12:10:13;97907.97;;;19.84;53.73
62789;BME280;66401;42.016;21.454;2023-05-15T12:12:40;97906.94;;;19.95;54.15
62789;BME280;66401;42.016;21.454;2023-05-15T12:15:14;97903.97;;;19.24;54.53
62789;BME280;66401;42.016;21.454;2023-05-15T12:17:40;97903.81;;;18.98;55.42
62789;BME280;66401;42.016;21.454;2023-05-15T12:20:07;97901.94;;;19.36;56.15
62789;BME280;66401;42.016;21.454;2023-05-15T12:22:37;97894.06;;;19.46;55.22
62789;BME280;66401;42.016;21.454;2023-05-15T12:25:05;97896.91;;;20.02;54.93
62789;BME280;66401;42.016;21.454;2023-05-15T12:27:31;97900.59;;;19.91;54.87
62789;BME280;66401;42.016;21.454;2023-05-15T12:29:57;97895.59;;;20.25;53.30
62789;BME280;66401;42.016;21.454;2023-05-15T12:32:23;97889.00;;;20.17;53.68
62789;BME280;66401;42.016;21.454;2023-05-15T12:34:49;97896.16;;;20.42;54.18
62789;BME280;66401;42.016;21.454;2023-05-15T12:37:17;97893.81;;;20.66;54.74
62789;BME280;66401;42.016;21.454;2023-05-15T12:39:55;97889.56;;;20.40;52.83
62789;BME280;66401;42.016;21.454;2023-05-15T12:42:22;97891.13;;;20.20;54.31
62789;BME280;66401;42.016;21.454;2023-05-15T12:44:52;97887.41;;;20.26;53.75
62789;BME280;66401;42.016;21.454;2023-05-15T12:47:21;97878.97;;;20.19;53.73
62789;BME280;66401;42.016;21.454;2023-05-15T12:49:48;97878.66;;;20.00;54.17
62789;BME280;66401;42.016;21.454;2023-05-15T12:52:13;97890.06;;;20.11;54.77
62789;BME280;66401;42.016;21.454;2023-05-15T12:54:39;97890.09;;;20.62;53.67
62789;BME280;66401;42.016;21.454;2023-05-15T12:57:08;97890.66;;;20.49;52.67
62789;BME280;66401;42.016;21.454;2023-05-15T12:59:34;97889.78;;;20.08;54.17
62789;BME280;66401;42.016;21.454;2023-05-15T13:02:00;97878.69;;;20.11;55.11
62789;BME280;66401;42.016;21.454;2023-05-15T13:04:26;97874.19;;;20.16;54.32
62789;BME280;66401;42.016;21.454;2023-05-15T13:06:51;97871.06;;;20.45;54.38
62789;BME280;66401;42.016;21.454;2023-05-15T13:09:23;97869.97;;;20.25;54.97
62789;BME280;66401;42.016;21.454;2023-05-15T13:11:53;97875.53;;;20.19;52.77